sensor_id;sensor_type;location;lat;lon;timestamp;P1;durP1;ratioP1;P2;durP2;ratioP2
62796;SDS011;48839;48.546;-4.178;2022-10-16T00:02:18;29.67;;;18.02;;
62796;SDS011;48839;48.546;-4.178;2022-10-16T00:04:44;10.98;;;6.32;;
62796;SDS011;48839;48.546;-4.178;2022-10-16T00:07:10;14.05;;;7.68;;
62796;SDS011;48839;48.546;-4.178;2022-10-16T00:09:36;8.00;;;4.05;;
62796;SDS011;48839;48.546;-4.178;2022-10-16T00:12:02;6.85;;;1.60;;
62796;SDS011;48839;48.546;-4.178;2022-10-16T00:14:31;8.18;;;2.97;;
62796;SDS011;48839;48.546;-4.178;2022-10-16T00:16:57;5.63;;;0.98;;
62796;SDS011;48839;48.546;-4.178;2022-10-16T00:19:23;7.88;;;2.03;;
62796;SDS011;48839;48.546;-4.178;2022-10-16T00:21:49;3.95;;;0.98;;
62796;SDS011;48839;48.546;-4.178;2022-10-16T00:24:15;5.07;;;1.08;;
62796;SDS011;48839;48.546;-4.178;2022-10-16T00:26:41;5.45;;;0.90;;
62796;SDS011;48839;48.546;-4.178;2022-10-16T00:29:08;9.93;;;1.30;;
62796;SDS011;48839;48.546;-4.178;2022-10-16T00:31:34;4.63;;;1.13;;
62796;SDS011;48839;48.546;-4.178;2022-10-16T00:34:00;3.35;;;1.00;;
62796;SDS011;48839;48.546;-4.178;2022-10-16T00:36:27;2.90;;;0.82;;
62796;SDS011;48839;48.546;-4.178;2022-10-16T00:38:53;2.53;;;0.90;;
62796;SDS011;48839;48.546;-4.178;2022-10-16T00:41:20;6.78;;;0.90;;
62796;SDS011;48839;48.546;-4.178;2022-10-16T00:43:48;2.72;;;0.98;;
62796;SDS011;48839;48.546;-4.178;2022-10-16T00:51:23;3.33;;;1.10;;
62796;SDS011;48839;48.546;-4.178;2022-10-16T00:53:50;6.32;;;0.95;;
62796;SDS011;48839;48.546;-4.178;2022-10-16T00:56:17;3.92;;;1.20;;
62796;SDS011;48839;48.546;-4.178;2022-10-16T00:58:43;1.55;;;1.02;;
62796;SDS011;48839;48.546;-4.178;2022-10-16T01:01:09;4.20;;;1.20;;
62796;SDS011;48839;48.546;-4.178;2022-10-16T01:03:36;8.52;;;1.20;;
62796;SDS011;48839;48.546;-4.178;2022-10-16T01:06:06;5.72;;;1.70;;
62796;SDS011;48839;48.546;-4.178;2022-10-16T01:08:47;7.35;;;0.93;;
62796;SDS011;48839;48.546;-4.178;2022-10-16T01:13:42;5.95;;;1.10;;
62796;SDS011;48839;48.546;-4.178;2022-10-16T01:16:15;5.32;;;1.00;;
62796;SDS011;48839;48.546;-4.178;2022-10-16T01:21:15;4.70;;;1.10;;
62796;SDS011;48839;48.546;-4.178;2022-10-16T01:24:25;5.80;;;0.98;;
62796;SDS011;48839;48.546;-4.178;2022-10-16T01:29:13;8.02;;;1.10;;
62796;SDS011;48839;48.546;-4.178;2022-10-16T01:31:40;5.15;;;1.40;;
62796;SDS011;48839;48.546;-4.178;2022-10-16T01:34:11;5.05;;;1.20;;
62796;SDS011;48839;48.546;-4.178;2022-10-16T01:36:42;4.72;;;0.98;;
62796;SDS011;48839;48.546;-4.178;2022-10-16T01:39:11;2.95;;;1.27;;
62796;SDS011;48839;48.546;-4.178;2022-10-16T01:41:38;2.83;;;1.10;;
62796;SDS011;48839;48.546;-4.178;2022-10-16T01:44:06;5.07;;;1.50;;
62796;SDS011;48839;48.546;-4.178;2022-10-16T01:46:34;7.97;;;1.30;;
62796;SDS011;48839;48.546;-4.178;2022-10-16T01:49:01;6.05;;;2.03;;
62796;SDS011;48839;48.546;-4.178;2022-10-16T01:51:28;4.63;;;1.23;;
62796;SDS011;48839;48.546;-4.178;2022-10-16T01:53:55;8.20;;;1.58;;
62796;SDS011;48839;48.546;-4.178;2022-10-16T01:56:23;6.18;;;1.30;;
62796;SDS011;48839;48.546;-4.178;2022-10-16T01:58:54;5.88;;;1.52;;
62796;SDS011;48839;48.546;-4.178;2022-10-16T02:01:22;7.28;;;1.20;;
62796;SDS011;48839;48.546;-4.178;2022-10-16T02:03:49;14.02;;;1.83;;
62796;SDS011;48839;48.546;-4.178;2022-10-16T02:06:18;5.70;;;2.08;;
62796;SDS011;48839;48.546;-4.178;2022-10-16T02:08:45;10.25;;;1.33;;
62796;SDS011;48839;48.546;-4.178;2022-10-16T02:11:11;9.50;;;1.77;;
62796;SDS011;48839;48.546;-4.178;2022-10-16T02:16:08;7.82;;;1.15;;
62796;SDS011;48839;48.546;-4.178;2022-10-16T02:18:34;8.40;;;1.52;;
62796;SDS011;48839;48.546;-4.178;2022-10-16T02:21:02;7.38;;;1.27;;
62796;SDS011;48839;48.546;-4.178;2022-10-16T02:23:45;7.20;;;1.60;;
62796;SDS011;48839;48.546;-4.178;2022-10-16T02:26:15;8.18;;;1.27;;
62796;SDS011;48839;48.546;-4.178;2022-10-16T02:28:45;4.05;;;1.15;;
62796;SDS011;48839;48.546;-4.178;2022-10-16T02:31:12;4.88;;;1.40;;
62796;SDS011;48839;48.546;-4.178;2022-10-16T02:33:42;8.90;;;1.30;;
62796;SDS011;48839;48.546;-4.178;2022-10-16T02:36:09;8.98;;;1.23;;
62796;SDS011;48839;48.546;-4.178;2022-10-16T02:38:35;7.43;;;1.27;;
62796;SDS011;48839;48.546;-4.178;2022-10-16T02:41:02;5.65;;;1.10;;
62796;SDS011;48839;48.546;-4.178;2022-10-16T02:43:29;6.70;;;1.08;;
62796;SDS011;48839;48.546;-4.178;2022-10-16T02:45:55;5.32;;;1.13;;
62796;SDS011;48839;48.546;-4.178;2022-10-16T02:48:21;10.02;;;1.55;;
62796;SDS011;48839;48.546;-4.178;2022-10-16T02:50:47;11.80;;;2.08;;
62796;SDS011;48839;48.546;-4.178;2022-10-16T02:53:13;5.43;;;1.20;;
62796;SDS011;48839;48.546;-4.178;2022-10-16T02:55:39;2.70;;;1.10;;
62796;SDS011;48839;48.546;-4.178;2022-10-16T02:58:05;4.90;;;1.00;;
62796;SDS011;48839;48.546;-4.178;2022-10-16T03:00:31;3.83;;;1.10;;
62796;SDS011;48839;48.546;-4.178;2022-10-16T03:02:57;3.28;;;1.23;;
62796;SDS011;48839;48.546;-4.178;2022-10-16T03:05:23;6.82;;;1.48;;
62796;SDS011;48839;48.546;-4.178;2022-10-16T03:07:49;9.70;;;1.55;;
62796;SDS011;48839;48.546;-4.178;2022-10-16T03:10:15;5.25;;;1.20;;
62796;SDS011;48839;48.546;-4.178;2022-10-16T03:12:41;8.00;;;1.10;;
62796;SDS011;48839;48.546;-4.178;2022-10-16T03:15:07;4.00;;;0.85;;
62796;SDS011;48839;48.546;-4.178;2022-10-16T03:17:33;4.15;;;1.00;;
62796;SDS011;48839;48.546;-4.178;2022-10-16T03:19:59;6.15;;;1.20;;
62796;SDS011;48839;48.546;-4.178;2022-10-16T03:22:25;3.28;;;1.13;;
62796;SDS011;48839;48.546;-4.178;2022-10-16T03:24:51;7.30;;;1.35;;
62796;SDS011;48839;48.546;-4.178;2022-10-16T03:27:17;7.32;;;1.30;;
62796;SDS011;48839;48.546;-4.178;2022-10-16T03:29:43;6.38;;;0.95;;
62796;SDS011;48839;48.546;-4.178;2022-10-16T03:32:09;3.72;;;1.05;;
62796;SDS011;48839;48.546;-4.178;2022-10-16T03:34:35;5.90;;;1.02;;
62796;SDS011;48839;48.546;-4.178;2022-10-16T03:37:01;1.83;;;0.90;;
62796;SDS011;48839;48.546;-4.178;2022-10-16T03:39:27;6.80;;;1.23;;
62796;SDS011;48839;48.546;-4.178;2022-10-16T03:41:53;10.27;;;1.20;;
62796;SDS011;48839;48.546;-4.178;2022-10-16T03:44:19;7.05;;;1.25;;
62796;SDS011;48839;48.546;-4.178;2022-10-16T03:46:46;4.65;;;1.17;;
62796;SDS011;48839;48.546;-4.178;2022-10-16T03:49:12;4.97;;;1.30;;
62796;SDS011;48839;48.546;-4.178;2022-10-16T03:51:38;3.63;;;1.25;;
62796;SDS011;48839;48.546;-4.178;2022-10-16T03:54:04;11.07;;;1.30;;
62796;SDS011;48839;48.546;-4.178;2022-10-16T03:56:30;3.35;;;1.02;;
62796;SDS011;48839;48.546;-4.178;2022-10-16T03:58:56;11.32;;;3.38;;
62796;SDS011;48839;48.546;-4.178;2022-10-16T04:01:22;6.50;;;1.48;;
62796;SDS011;48839;48.546;-4.178;2022-10-16T04:03:48;5.38;;;1.27;;
62796;SDS011;48839;48.546;-4.178;2022-10-16T04:06:14;3.10;;;1.23;;
62796;SDS011;48839;48.546;-4.178;2022-10-16T04:08:42;7.35;;;2.03;;
62796;SDS011;48839;48.546;-4.178;2022-10-16T04:11:08;9.48;;;1.70;;
62796;SDS011;48839;48.546;-4.178;2022-10-16T04:13:34;5.97;;;1.23;;
62796;SDS011;48839;48.546;-4.178;2022-10-16T04:16:00;4.85;;;1.40;;
62796;SDS011;48839;48.546;-4.178;2022-10-16T04:18:26;5.35;;;1.67;;
62796;SDS011;48839;48.546;-4.178;2022-10-16T04:20:53;10.30;;;1.40;;
62796;SDS011;48839;48.546;-4.178;2022-10-16T04:23:19;9.13;;;1.33;;
62796;SDS011;48839;48.546;-4.178;2022-10-16T04:25:45;6.20;;;1.33;;
62796;SDS011;48839;48.546;-4.178;2022-10-16T04:28:11;3.00;;;1.30;;
62796;SDS011;48839;48.546;-4.178;2022-10-16T04:30:38;8.38;;;1.38;;
62796;SDS011;48839;48.546;-4.178;2022-10-16T04:33:04;7.60;;;1.80;;
62796;SDS011;48839;48.546;-4.178;2022-10-16T04:35:30;6.60;;;1.10;;
62796;SDS011;48839;48.546;-4.178;2022-10-16T04:37:59;5.53;;;1.27;;
62796;SDS011;48839;48.546;-4.178;2022-10-16T04:40:25;4.88;;;1.25;;
62796;SDS011;48839;48.546;-4.178;2022-10-16T04:42:52;5.60;;;1.15;;
62796;SDS011;48839;48.546;-4.178;2022-10-16T04:45:18;4.13;;;1.38;;
62796;SDS011;48839;48.546;-4.178;2022-10-16T04:47:44;8.40;;;1.70;;
62796;SDS011;48839;48.546;-4.178;2022-10-16T04:50:10;3.13;;;1.30;;
62796;SDS011;48839;48.546;-4.178;2022-10-16T04:52:36;3.78;;;1.13;;
62796;SDS011;48839;48.546;-4.178;2022-10-16T04:55:02;4.53;;;1.40;;
62796;SDS011;48839;48.546;-4.178;2022-10-16T04:57:28;5.43;;;1.55;;
62796;SDS011;48839;48.546;-4.178;2022-10-16T04:59:54;4.28;;;1.10;;
62796;SDS011;48839;48.546;-4.178;2022-10-16T05:02:20;9.93;;;1.90;;
62796;SDS011;48839;48.546;-4.178;2022-10-16T05:04:46;5.90;;;1.38;;
62796;SDS011;48839;48.546;-4.178;2022-10-16T05:07:12;2.72;;;1.35;;
62796;SDS011;48839;48.546;-4.178;2022-10-16T05:09:38;9.38;;;1.95;;
62796;SDS011;48839;48.546;-4.178;2022-10-16T05:12:04;4.72;;;1.55;;
62796;SDS011;48839;48.546;-4.178;2022-10-16T05:14:30;8.07;;;1.20;;
62796;SDS011;48839;48.546;-4.178;2022-10-16T05:16:56;6.55;;;1.40;;
62796;SDS011;48839;48.546;-4.178;2022-10-16T05:19:22;7.85;;;1.45;;
62796;SDS011;48839;48.546;-4.178;2022-10-16T05:21:48;8.60;;;1.67;;
62796;SDS011;48839;48.546;-4.178;2022-10-16T05:24:15;11.27;;;2.13;;
62796;SDS011;48839;48.546;-4.178;2022-10-16T05:26:41;6.30;;;1.58;;
62796;SDS011;48839;48.546;-4.178;2022-10-16T05:29:07;10.02;;;1.95;;
62796;SDS011;48839;48.546;-4.178;2022-10-16T05:31:33;4.57;;;1.20;;
62796;SDS011;48839;48.546;-4.178;2022-10-16T05:33:59;7.30;;;1.67;;
62796;SDS011;48839;48.546;-4.178;2022-10-16T05:36:25;7.85;;;1.55;;
62796;SDS011;48839;48.546;-4.178;2022-10-16T05:38:52;9.77;;;1.77;;
62796;SDS011;48839;48.546;-4.178;2022-10-16T05:41:18;10.35;;;1.65;;
62796;SDS011;48839;48.546;-4.178;2022-10-16T05:43:48;5.30;;;1.20;;
62796;SDS011;48839;48.546;-4.178;2022-10-16T05:46:14;10.77;;;1.75;;
62796;SDS011;48839;48.546;-4.178;2022-10-16T05:48:41;11.80;;;1.75;;
62796;SDS011;48839;48.546;-4.178;2022-10-16T05:51:07;6.55;;;1.20;;
62796;SDS011;48839;48.546;-4.178;2022-10-16T05:53:35;10.65;;;1.50;;
62796;SDS011;48839;48.546;-4.178;2022-10-16T05:56:01;10.23;;;1.52;;
62796;SDS011;48839;48.546;-4.178;2022-10-16T05:58:29;5.45;;;1.33;;
62796;SDS011;48839;48.546;-4.178;2022-10-16T06:00:59;18.10;;;2.80;;
62796;SDS011;48839;48.546;-4.178;2022-10-16T06:03:26;8.05;;;1.23;;
62796;SDS011;48839;48.546;-4.178;2022-10-16T06:05:52;5.55;;;1.30;;
62796;SDS011;48839;48.546;-4.178;2022-10-16T06:08:19;7.75;;;1.35;;
62796;SDS011;48839;48.546;-4.178;2022-10-16T06:10:46;4.90;;;1.30;;
62796;SDS011;48839;48.546;-4.178;2022-10-16T06:13:13;3.72;;;1.40;;
62796;SDS011;48839;48.546;-4.178;2022-10-16T06:15:39;6.60;;;1.75;;
62796;SDS011;48839;48.546;-4.178;2022-10-16T06:18:06;8.80;;;1.17;;
62796;SDS011;48839;48.546;-4.178;2022-10-16T06:20:33;3.70;;;1.55;;
62796;SDS011;48839;48.546;-4.178;2022-10-16T06:22:59;7.07;;;1.35;;
62796;SDS011;48839;48.546;-4.178;2022-10-16T06:25:25;8.52;;;1.20;;
62796;SDS011;48839;48.546;-4.178;2022-10-16T06:27:51;6.88;;;1.77;;
62796;SDS011;48839;48.546;-4.178;2022-10-16T06:30:17;8.27;;;1.60;;
62796;SDS011;48839;48.546;-4.178;2022-10-16T06:32:43;8.23;;;1.65;;
62796;SDS011;48839;48.546;-4.178;2022-10-16T06:35:09;7.28;;;1.77;;
62796;SDS011;48839;48.546;-4.178;2022-10-16T06:37:35;9.65;;;2.90;;
62796;SDS011;48839;48.546;-4.178;2022-10-16T06:40:01;10.50;;;2.47;;
62796;SDS011;48839;48.546;-4.178;2022-10-16T06:42:29;5.82;;;2.00;;
62796;SDS011;48839;48.546;-4.178;2022-10-16T06:44:55;3.85;;;1.85;;
62796;SDS011;48839;48.546;-4.178;2022-10-16T06:47:21;3.17;;;1.85;;
62796;SDS011;48839;48.546;-4.178;2022-10-16T06:49:47;10.18;;;1.98;;
62796;SDS011;48839;48.546;-4.178;2022-10-16T06:52:13;6.38;;;1.60;;
62796;SDS011;48839;48.546;-4.178;2022-10-16T06:54:39;5.93;;;2.28;;
62796;SDS011;48839;48.546;-4.178;2022-10-16T06:57:05;3.75;;;2.05;;
62796;SDS011;48839;48.546;-4.178;2022-10-16T06:59:31;8.90;;;2.17;;
62796;SDS011;48839;48.546;-4.178;2022-10-16T07:01:57;7.97;;;2.22;;
62796;SDS011;48839;48.546;-4.178;2022-10-16T07:04:23;11.45;;;2.55;;
62796;SDS011;48839;48.546;-4.178;2022-10-16T07:06:49;7.50;;;1.80;;
62796;SDS011;48839;48.546;-4.178;2022-10-16T07:09:16;6.32;;;1.98;;
62796;SDS011;48839;48.546;-4.178;2022-10-16T07:11:42;8.60;;;2.28;;
62796;SDS011;48839;48.546;-4.178;2022-10-16T07:14:17;11.25;;;1.92;;
62796;SDS011;48839;48.546;-4.178;2022-10-16T07:16:43;5.07;;;1.67;;
62796;SDS011;48839;48.546;-4.178;2022-10-16T07:19:09;7.20;;;2.10;;
62796;SDS011;48839;48.546;-4.178;2022-10-16T07:21:37;5.20;;;1.85;;
62796;SDS011;48839;48.546;-4.178;2022-10-16T07:24:04;8.23;;;2.20;;
62796;SDS011;48839;48.546;-4.178;2022-10-16T07:26:31;6.97;;;1.92;;
62796;SDS011;48839;48.546;-4.178;2022-10-16T07:28:58;5.80;;;1.98;;
62796;SDS011;48839;48.546;-4.178;2022-10-16T07:31:24;3.67;;;1.50;;
62796;SDS011;48839;48.546;-4.178;2022-10-16T07:33:50;6.80;;;1.83;;
62796;SDS011;48839;48.546;-4.178;2022-10-16T07:36:17;7.63;;;4.82;;
62796;SDS011;48839;48.546;-4.178;2022-10-16T07:38:43;6.97;;;2.20;;
62796;SDS011;48839;48.546;-4.178;2022-10-16T07:41:10;5.53;;;2.08;;
62796;SDS011;48839;48.546;-4.178;2022-10-16T07:43:37;4.53;;;1.70;;
62796;SDS011;48839;48.546;-4.178;2022-10-16T07:46:03;6.78;;;2.00;;
62796;SDS011;48839;48.546;-4.178;2022-10-16T07:48:30;6.57;;;1.88;;
62796;SDS011;48839;48.546;-4.178;2022-10-16T07:50:57;2.58;;;1.63;;
62796;SDS011;48839;48.546;-4.178;2022-10-16T07:53:24;4.82;;;2.33;;
62796;SDS011;48839;48.546;-4.178;2022-10-16T07:55:50;3.92;;;1.75;;
62796;SDS011;48839;48.546;-4.178;2022-10-16T07:58:16;8.27;;;1.88;;
62796;SDS011;48839;48.546;-4.178;2022-10-16T08:00:42;3.42;;;1.95;;
62796;SDS011;48839;48.546;-4.178;2022-10-16T08:03:08;5.85;;;2.30;;
62796;SDS011;48839;48.546;-4.178;2022-10-16T08:05:34;4.35;;;2.05;;
62796;SDS011;48839;48.546;-4.178;2022-10-16T08:08:02;5.97;;;2.50;;
62796;SDS011;48839;48.546;-4.178;2022-10-16T08:10:28;4.72;;;1.90;;
62796;SDS011;48839;48.546;-4.178;2022-10-16T08:12:54;6.22;;;2.00;;
62796;SDS011;48839;48.546;-4.178;2022-10-16T08:15:20;4.20;;;1.85;;
62796;SDS011;48839;48.546;-4.178;2022-10-16T08:17:56;4.22;;;1.52;;
62796;SDS011;48839;48.546;-4.178;2022-10-16T08:20:22;4.60;;;2.00;;
62796;SDS011;48839;48.546;-4.178;2022-10-16T08:22:48;7.07;;;1.88;;
62796;SDS011;48839;48.546;-4.178;2022-10-16T08:25:14;3.45;;;1.42;;
62796;SDS011;48839;48.546;-4.178;2022-10-16T08:27:40;3.08;;;1.33;;
62796;SDS011;48839;48.546;-4.178;2022-10-16T08:30:06;5.65;;;1.45;;
62796;SDS011;48839;48.546;-4.178;2022-10-16T08:32:32;7.68;;;1.50;;
62796;SDS011;48839;48.546;-4.178;2022-10-16T08:34:58;4.50;;;1.83;;
62796;SDS011;48839;48.546;-4.178;2022-10-16T08:37:24;6.88;;;1.45;;
62796;SDS011;48839;48.546;-4.178;2022-10-16T08:39:50;6.28;;;1.35;;
62796;SDS011;48839;48.546;-4.178;2022-10-16T08:42:41;5.43;;;1.30;;
62796;SDS011;48839;48.546;-4.178;2022-10-16T08:47:36;3.33;;;1.40;;
62796;SDS011;48839;48.546;-4.178;2022-10-16T08:50:09;4.53;;;1.23;;
62796;SDS011;48839;48.546;-4.178;2022-10-16T08:52:38;4.50;;;1.00;;
62796;SDS011;48839;48.546;-4.178;2022-10-16T08:55:04;5.28;;;1.40;;
62796;SDS011;48839;48.546;-4.178;2022-10-16T08:57:31;2.05;;;1.40;;
62796;SDS011;48839;48.546;-4.178;2022-10-16T08:59:59;5.05;;;1.13;;
62796;SDS011;48839;48.546;-4.178;2022-10-16T09:02:31;2.72;;;1.13;;
62796;SDS011;48839;48.546;-4.178;2022-10-16T09:05:16;3.03;;;1.10;;
62796;SDS011;48839;48.546;-4.178;2022-10-16T09:12:45;3.63;;;1.55;;
62796;SDS011;48839;48.546;-4.178;2022-10-16T09:23:13;3.90;;;1.25;;
62796;SDS011;48839;48.546;-4.178;2022-10-16T09:25:42;4.43;;;1.70;;
62796;SDS011;48839;48.546;-4.178;2022-10-16T09:28:08;2.97;;;0.90;;
62796;SDS011;48839;48.546;-4.178;2022-10-16T09:30:35;5.28;;;1.20;;
62796;SDS011;48839;48.546;-4.178;2022-10-16T09:33:01;5.90;;;1.13;;
62796;SDS011;48839;48.546;-4.178;2022-10-16T09:35:37;3.92;;;1.10;;
62796;SDS011;48839;48.546;-4.178;2022-10-16T09:38:04;2.72;;;0.93;;
62796;SDS011;48839;48.546;-4.178;2022-10-16T09:40:32;12.38;;;1.60;;
62796;SDS011;48839;48.546;-4.178;2022-10-16T09:43:12;6.95;;;1.63;;
62796;SDS011;48839;48.546;-4.178;2022-10-16T09:45:39;5.28;;;1.40;;
62796;SDS011;48839;48.546;-4.178;2022-10-16T09:48:12;4.53;;;1.02;;
62796;SDS011;48839;48.546;-4.178;2022-10-16T09:50:38;4.03;;;1.20;;
62796;SDS011;48839;48.546;-4.178;2022-10-16T09:55:30;1.92;;;1.20;;
62796;SDS011;48839;48.546;-4.178;2022-10-16T09:57:56;8.40;;;1.45;;
62796;SDS011;48839;48.546;-4.178;2022-10-16T10:00:23;5.75;;;1.50;;
62796;SDS011;48839;48.546;-4.178;2022-10-16T10:02:49;2.75;;;1.20;;
62796;SDS011;48839;48.546;-4.178;2022-10-16T10:05:20;3.00;;;1.20;;
62796;SDS011;48839;48.546;-4.178;2022-10-16T10:07:52;2.17;;;0.98;;
62796;SDS011;48839;48.546;-4.178;2022-10-16T10:10:21;5.85;;;1.38;;
62796;SDS011;48839;48.546;-4.178;2022-10-16T10:12:47;3.45;;;0.90;;
62796;SDS011;48839;48.546;-4.178;2022-10-16T10:15:13;6.38;;;1.42;;
62796;SDS011;48839;48.546;-4.178;2022-10-16T10:17:53;5.00;;;1.13;;
62796;SDS011;48839;48.546;-4.178;2022-10-16T10:20:27;2.60;;;0.93;;
62796;SDS011;48839;48.546;-4.178;2022-10-16T10:32:51;5.35;;;1.10;;
62796;SDS011;48839;48.546;-4.178;2022-10-16T10:35:22;5.65;;;1.02;;
62796;SDS011;48839;48.546;-4.178;2022-10-16T10:37:56;4.88;;;1.20;;
62796;SDS011;48839;48.546;-4.178;2022-10-16T10:43:22;2.40;;;1.00;;
62796;SDS011;48839;48.546;-4.178;2022-10-16T10:45:47;3.33;;;1.20;;
62796;SDS011;48839;48.546;-4.178;2022-10-16T10:48:24;6.50;;;1.20;;
62796;SDS011;48839;48.546;-4.178;2022-10-16T10:51:01;4.72;;;1.48;;
62796;SDS011;48839;48.546;-4.178;2022-10-16T10:58:50;2.95;;;1.27;;
62796;SDS011;48839;48.546;-4.178;2022-10-16T11:01:22;3.38;;;1.10;;
62796;SDS011;48839;48.546;-4.178;2022-10-16T11:08:50;6.90;;;1.58;;
62796;SDS011;48839;48.546;-4.178;2022-10-16T11:11:25;3.90;;;1.55;;
62796;SDS011;48839;48.546;-4.178;2022-10-16T11:14:03;5.20;;;1.85;;
62796;SDS011;48839;48.546;-4.178;2022-10-16T11:16:39;5.53;;;1.23;;
62796;SDS011;48839;48.546;-4.178;2022-10-16T11:19:18;5.10;;;1.50;;
62796;SDS011;48839;48.546;-4.178;2022-10-16T11:21:54;3.70;;;1.75;;
62796;SDS011;48839;48.546;-4.178;2022-10-16T11:26:47;3.28;;;1.40;;
62796;SDS011;48839;48.546;-4.178;2022-10-16T11:29:17;2.08;;;1.20;;
62796;SDS011;48839;48.546;-4.178;2022-10-16T11:31:49;2.78;;;1.10;;
62796;SDS011;48839;48.546;-4.178;2022-10-16T11:34:19;2.28;;;0.90;;
62796;SDS011;48839;48.546;-4.178;2022-10-16T11:36:53;1.00;;;0.88;;
62796;SDS011;48839;48.546;-4.178;2022-10-16T11:42:04;1.27;;;0.90;;
62796;SDS011;48839;48.546;-4.178;2022-10-16T11:44:49;2.13;;;0.90;;
62796;SDS011;48839;48.546;-4.178;2022-10-16T11:49:50;2.17;;;1.05;;
62796;SDS011;48839;48.546;-4.178;2022-10-16T11:52:25;2.67;;;1.02;;
62796;SDS011;48839;48.546;-4.178;2022-10-16T11:57:39;1.58;;;0.80;;
62796;SDS011;48839;48.546;-4.178;2022-10-16T12:00:16;3.20;;;1.00;;
62796;SDS011;48839;48.546;-4.178;2022-10-16T12:03:04;1.05;;;0.57;;
62796;SDS011;48839;48.546;-4.178;2022-10-16T12:05:55;2.80;;;0.52;;
62796;SDS011;48839;48.546;-4.178;2022-10-16T12:08:23;3.45;;;0.90;;
62796;SDS011;48839;48.546;-4.178;2022-10-16T12:10:50;0.85;;;0.60;;
62796;SDS011;48839;48.546;-4.178;2022-10-16T12:18:30;1.02;;;0.50;;
62796;SDS011;48839;48.546;-4.178;2022-10-16T12:20:57;2.10;;;0.45;;
62796;SDS011;48839;48.546;-4.178;2022-10-16T12:23:33;0.55;;;0.55;;
62796;SDS011;48839;48.546;-4.178;2022-10-16T12:26:02;1.20;;;0.38;;
62796;SDS011;48839;48.546;-4.178;2022-10-16T12:28:29;0.63;;;0.50;;
62796;SDS011;48839;48.546;-4.178;2022-10-16T12:31:00;1.33;;;0.45;;
62796;SDS011;48839;48.546;-4.178;2022-10-16T12:33:27;0.47;;;0.40;;
62796;SDS011;48839;48.546;-4.178;2022-10-16T12:35:54;0.28;;;0.28;;
62796;SDS011;48839;48.546;-4.178;2022-10-16T12:38:22;1.15;;;0.50;;
62796;SDS011;48839;48.546;-4.178;2022-10-16T12:41:09;0.40;;;0.40;;
62796;SDS011;48839;48.546;-4.178;2022-10-16T12:43:38;1.17;;;0.35;;
62796;SDS011;48839;48.546;-4.178;2022-10-16T12:48:36;1.40;;;0.60;;
62796;SDS011;48839;48.546;-4.178;2022-10-16T12:51:36;0.75;;;0.50;;
62796;SDS011;48839;48.546;-4.178;2022-10-16T13:09:55;2.38;;;0.40;;
62796;SDS011;48839;48.546;-4.178;2022-10-16T13:12:33;1.38;;;0.50;;
62796;SDS011;48839;48.546;-4.178;2022-10-16T13:20:16;0.30;;;0.30;;
62796;SDS011;48839;48.546;-4.178;2022-10-16T13:25:22;0.55;;;0.30;;
62796;SDS011;48839;48.546;-4.178;2022-10-16T13:27:54;0.60;;;0.40;;
62796;SDS011;48839;48.546;-4.178;2022-10-16T13:32:48;0.82;;;0.40;;
62796;SDS011;48839;48.546;-4.178;2022-10-16T13:37:46;1.05;;;0.40;;
62796;SDS011;48839;48.546;-4.178;2022-10-16T13:40:22;1.77;;;0.57;;
62796;SDS011;48839;48.546;-4.178;2022-10-16T13:42:49;0.73;;;0.73;;
62796;SDS011;48839;48.546;-4.178;2022-10-16T13:45:25;2.35;;;0.90;;
62796;SDS011;48839;48.546;-4.178;2022-10-16T13:48:03;1.25;;;0.88;;
62796;SDS011;48839;48.546;-4.178;2022-10-16T13:50:30;6.05;;;1.10;;
62796;SDS011;48839;48.546;-4.178;2022-10-16T13:55:51;1.70;;;1.20;;
62796;SDS011;48839;48.546;-4.178;2022-10-16T13:58:17;9.57;;;1.65;;
62796;SDS011;48839;48.546;-4.178;2022-10-16T14:00:53;4.00;;;1.30;;
62796;SDS011;48839;48.546;-4.178;2022-10-16T14:03:19;5.10;;;1.60;;
62796;SDS011;48839;48.546;-4.178;2022-10-16T14:05:47;4.32;;;1.10;;
62796;SDS011;48839;48.546;-4.178;2022-10-16T14:08:13;4.63;;;1.42;;
62796;SDS011;48839;48.546;-4.178;2022-10-16T14:10:40;7.63;;;1.38;;
62796;SDS011;48839;48.546;-4.178;2022-10-16T14:13:06;4.72;;;1.45;;
62796;SDS011;48839;48.546;-4.178;2022-10-16T14:15:34;3.00;;;1.10;;
62796;SDS011;48839;48.546;-4.178;2022-10-16T14:18:00;1.80;;;1.20;;
62796;SDS011;48839;48.546;-4.178;2022-10-16T14:20:28;2.75;;;1.20;;
62796;SDS011;48839;48.546;-4.178;2022-10-16T14:23:37;3.25;;;1.35;;
62796;SDS011;48839;48.546;-4.178;2022-10-16T14:25:44;2.53;;;1.35;;
62796;SDS011;48839;48.546;-4.178;2022-10-16T14:30:48;3.55;;;1.08;;
62796;SDS011;48839;48.546;-4.178;2022-10-16T14:33:47;3.72;;;1.73;;
62796;SDS011;48839;48.546;-4.178;2022-10-16T14:36:11;3.55;;;1.45;;
62796;SDS011;48839;48.546;-4.178;2022-10-16T14:38:38;4.35;;;2.13;;
62796;SDS011;48839;48.546;-4.178;2022-10-16T14:41:05;3.90;;;1.75;;
62796;SDS011;48839;48.546;-4.178;2022-10-16T14:43:32;1.90;;;0.90;;
62796;SDS011;48839;48.546;-4.178;2022-10-16T14:45:59;3.22;;;0.90;;
62796;SDS011;48839;48.546;-4.178;2022-10-16T14:48:25;2.30;;;1.15;;
62796;SDS011;48839;48.546;-4.178;2022-10-16T14:50:51;3.80;;;1.50;;
62796;SDS011;48839;48.546;-4.178;2022-10-16T14:53:18;3.88;;;1.70;;
62796;SDS011;48839;48.546;-4.178;2022-10-16T14:55:44;2.70;;;1.98;;
62796;SDS011;48839;48.546;-4.178;2022-10-16T14:58:14;3.50;;;1.92;;
62796;SDS011;48839;48.546;-4.178;2022-10-16T15:00:41;2.00;;;1.50;;
62796;SDS011;48839;48.546;-4.178;2022-10-16T15:03:07;3.33;;;1.20;;
62796;SDS011;48839;48.546;-4.178;2022-10-16T15:05:33;3.22;;;1.20;;
62796;SDS011;48839;48.546;-4.178;2022-10-16T15:07:59;2.45;;;1.15;;
62796;SDS011;48839;48.546;-4.178;2022-10-16T15:10:25;3.65;;;1.10;;
62796;SDS011;48839;48.546;-4.178;2022-10-16T15:12:52;2.20;;;1.10;;
62796;SDS011;48839;48.546;-4.178;2022-10-16T15:15:24;6.30;;;1.40;;
62796;SDS011;48839;48.546;-4.178;2022-10-16T15:17:55;2.10;;;1.17;;
62796;SDS011;48839;48.546;-4.178;2022-10-16T15:20:25;2.88;;;0.98;;
62796;SDS011;48839;48.546;-4.178;2022-10-16T15:22:51;3.22;;;1.90;;
62796;SDS011;48839;48.546;-4.178;2022-10-16T15:27:56;4.05;;;1.00;;
62796;SDS011;48839;48.546;-4.178;2022-10-16T15:30:22;2.85;;;1.10;;
62796;SDS011;48839;48.546;-4.178;2022-10-16T15:32:48;3.53;;;1.17;;
62796;SDS011;48839;48.546;-4.178;2022-10-16T15:35:14;5.13;;;2.55;;
62796;SDS011;48839;48.546;-4.178;2022-10-16T15:37:40;4.07;;;1.63;;
62796;SDS011;48839;48.546;-4.178;2022-10-16T15:40:06;7.53;;;2.70;;
62796;SDS011;48839;48.546;-4.178;2022-10-16T15:42:32;8.05;;;4.32;;
62796;SDS011;48839;48.546;-4.178;2022-10-16T15:44:58;18.33;;;8.45;;
62796;SDS011;48839;48.546;-4.178;2022-10-16T15:47:24;17.38;;;9.00;;
62796;SDS011;48839;48.546;-4.178;2022-10-16T15:49:50;6.55;;;2.15;;
62796;SDS011;48839;48.546;-4.178;2022-10-16T15:52:16;2.75;;;0.98;;
62796;SDS011;48839;48.546;-4.178;2022-10-16T15:54:43;4.22;;;1.38;;
62796;SDS011;48839;48.546;-4.178;2022-10-16T15:57:09;6.18;;;1.85;;
62796;SDS011;48839;48.546;-4.178;2022-10-16T15:59:35;5.22;;;2.53;;
62796;SDS011;48839;48.546;-4.178;2022-10-16T16:02:01;3.28;;;2.42;;
62796;SDS011;48839;48.546;-4.178;2022-10-16T16:04:29;3.78;;;1.65;;
62796;SDS011;48839;48.546;-4.178;2022-10-16T16:06:56;3.95;;;1.13;;
62796;SDS011;48839;48.546;-4.178;2022-10-16T16:09:22;4.03;;;1.20;;
62796;SDS011;48839;48.546;-4.178;2022-10-16T16:11:48;2.60;;;1.30;;
62796;SDS011;48839;48.546;-4.178;2022-10-16T16:14:16;2.45;;;1.00;;
62796;SDS011;48839;48.546;-4.178;2022-10-16T16:16:42;4.53;;;0.98;;
62796;SDS011;48839;48.546;-4.178;2022-10-16T16:19:08;1.67;;;0.95;;
62796;SDS011;48839;48.546;-4.178;2022-10-16T16:21:34;3.67;;;1.75;;
62796;SDS011;48839;48.546;-4.178;2022-10-16T16:24:00;5.25;;;1.10;;
62796;SDS011;48839;48.546;-4.178;2022-10-16T16:26:32;1.77;;;0.80;;
62796;SDS011;48839;48.546;-4.178;2022-10-16T16:29:01;2.55;;;1.40;;
62796;SDS011;48839;48.546;-4.178;2022-10-16T16:31:27;2.72;;;1.10;;